Latest Coastal Weather Observations for Double Island Point

IDQ60701

Issued at 12:15 pm EST Wednesday 3 September 2014 (issued every 10 minutes, with the page automatically refreshed every 10 minutes)

About coastal observations | Map of coastal stations | Coastal observations for QLD | Marine services | Other Formats
Station Details ID: 040068 Name: DOUBLE ISLAND POINT LIGHTHOUSE Lat: -25.93 Lon: 153.19 Height: 95.64 m
Data from the previous 72 hours. | See also: Recent months at Double Island Point
Date/Time
EST
Temp

°C
Wind Pressure Rain
since 9am
mm
Weather Cloud Vis
km
Sea
Height
m
Swell
Dir
 
Speed
knots
Gust
knots
hPa Trend Height
m
Period
s
Dir
03/12:11pm 19.5 W 15 26 1011.0 - 0.0 - - - - - - -
03/12:00pm 19.2 WSW 19 28 1011.2 - 0.0 - - - - - - -
03/11:33am 18.7 W 18 28 1011.8 - 0.0 - - - - - - -
03/11:30am 18.8 W 18 26 1011.9 - 0.0 - - - - - - -
03/11:00am 18.0 WSW 17 27 1012.4 - 0.0 - - - - - - -
03/10:35am 17.6 WSW 18 28 1013.3 - 0.0 - - - - - - -
03/10:30am 17.8 SSW 16 23 1013.5 - 0.0 - - - - - - -
03/10:00am 16.7 WSW 16 26 1013.4 - 0.0 - - - - - - -
03/09:55am 17.0 SW 18 28 1013.5 - 0.0 - - - - - - -
03/09:30am 15.9 SW 20 28 1013.8 - 0.0 - - - - - - -
03/09:12am 15.6 WSW 17 28 1013.9 - 0.0 - - - - - - -
03/09:00am 15.4 WSW 18 26 1014.2 - 0.0 - - - - - - -
03/08:30am 14.7 WSW 16 27 1014.4 - 0.0 - - - - - - -
03/08:13am 14.2 SW 15 26 1014.5 - 0.0 - - - - - - -
03/08:00am 14.1 WSW 12 16 1014.5 - 0.0 - - - - - - -
03/07:30am 13.4 SW 11 16 1014.6 - 0.0 - - - - - - -
03/07:00am 12.6 SW 11 17 1014.3 - 0.0 - - - - - - -
03/06:30am 12.1 SW 9 13 1014.1 - 0.0 - - - - - - -
03/06:00am 12.1 WSW 8 11 1013.8 - 0.0 - - - - - - -
03/05:30am 12.6 SW 5 8 1013.7 - 0.0 - - - - - - -
03/05:00am 13.0 SW 7 11 1013.2 - 0.0 - - - - - - -
03/04:30am 13.2 SSW 10 15 1012.8 - 0.0 - - - - - - -
03/04:00am 13.1 SSW 9 12 1012.6 - 0.0 - - - - - - -
03/03:30am 13.6 SSW 8 11 1012.8 - 0.0 - - - - - - -
03/03:00am 13.9 SSW 9 11 1012.9 - 0.0 - - - - - - -
03/02:30am 14.2 SW 11 14 1012.9 - 0.0 - - - - - - -
03/02:00am 14.8 SW 9 13 1013.2 - 0.0 - - - - - - -
03/01:30am 15.4 SSW 11 16 1013.1 - 0.0 - - - - - - -
03/01:00am 15.8 SSW 15 18 1013.0 - 0.0 - - - - - - -
03/12:30am 16.3 SSW 13 17 1013.1 - 0.0 - - - - - - -
03/12:00am 16.5 SW 11 14 1013.0 - 0.0 - - - - - - -
 
Date/Time
EST
Temp

°C
Wind Pressure Rain
since 9am
mm
Weather Cloud Vis
km
Sea
Height
m
Swell
Dir
 
Speed
knots
Gust
knots
hPa Trend Height
m
Period
s
Dir
02/11:30pm 17.3 SSW 13 19 1012.9 - 0.0 - - - - - - -
02/11:00pm 17.6 S 11 17 1012.8 - 0.0 - - - - - - -
02/10:30pm 18.4 SW 13 23 1012.5 - 0.0 - - - - - - -
02/10:00pm 19.0 SW 14 22 1012.3 - 0.0 - - - - - - -
02/09:42pm 19.4 WSW 15 21 1012.1 - 0.0 - - - - - - -
02/09:30pm 18.2 NW 6 9 1012.1 - 0.0 - - - - - - -
02/09:00pm 18.2 NW 7 9 1011.6 - 0.0 - - - - - - -
02/08:30pm 18.3 NW 9 11 1011.4 - 0.0 - - - - - - -
02/08:00pm 18.6 WNW 10 12 1011.2 - 0.0 - - - - - - -
02/07:30pm 19.1 WNW 13 18 1010.7 - 0.0 - - - - - - -
02/07:00pm 19.5 NW 15 19 1010.5 - 0.0 - - - - - - -
02/06:30pm 19.4 NNW 15 21 1009.6 - 0.0 - - - - - - -
02/06:00pm 19.7 NNW 13 20 1009.0 - 0.0 - - - - - - -
02/05:30pm 20.0 N 11 16 1008.6 - 0.0 - - - - - - -
02/05:00pm 20.6 NNW 15 21 1008.6 - 0.0 - - - - - - -
02/04:30pm 21.0 N 12 20 1008.6 - 0.0 - - - - - - -
02/04:00pm 21.6 N 11 15 1008.5 - 0.0 - - - - - - -
02/03:30pm 22.1 N 12 15 1008.6 - 0.0 - - - - - - -
02/03:04pm 22.2 N 15 25 1008.8 - 0.0 - - - - - - -
02/03:00pm 22.3 NNW 17 25 1008.8 - 0.0 - - - - - - -
02/02:30pm 23.0 N 12 17 1008.9 - 0.0 - - - - - - -
02/02:00pm 22.8 N 11 19 1009.5 - 0.0 - - - - - - -
02/01:30pm 22.5 N 11 17 1010.0 - 0.0 - - - - - - -
02/01:00pm 23.3 NNW 13 17 1010.7 - 0.0 - - - - - - -
02/12:30pm 25.6 NNW 11 17 1011.5 - 0.0 - - - - - - -
02/12:00pm 24.7 N 9 14 1012.3 - 0.0 - - - - - - -
02/11:30am 23.0 NNW 17 20 1012.8 - 0.0 - - - - - - -
02/11:00am 21.1 NNW 20 24 1013.3 - 0.0 - - - - - - -
02/10:30am 20.2 NNW 21 26 1014.2 - 0.0 - - - - - - -
02/10:00am 19.5 NW 18 24 1014.8 - 0.0 - - - - - - -
02/09:30am 18.6 NW 18 22 1014.9 - 0.0 - - - - - - -
02/09:00am 18.5 NW 18 25 1015.3 - 0.0 - - - - - - -
02/08:30am 17.6 NW 17 22 1015.4 - 0.0 - - - - - - -
02/08:00am 17.2 NW 19 25 1015.4 - 0.0 - - - - - - -
02/07:30am 16.7 NW 20 26 1015.2 - 0.0 - - - - - - -
02/07:00am 16.4 NW 18 23 1015.1 - 0.0 - - - - - - -
02/06:30am 16.4 NW 16 21 1015.4 - 0.0 - - - - - - -
02/06:00am 16.1 NW 15 19 1015.3 - 0.0 - - - - - - -
02/05:30am 15.8 NW 15 19 1015.0 - 0.0 - - - - - - -
02/05:00am 15.7 NW 15 18 1015.0 - 0.0 - - - - - - -
02/04:30am 16.2 NW 15 17 1014.9 - 0.0 - - - - - - -
02/04:00am 16.8 NW 14 16 1015.0 - 0.0 - - - - - - -
02/03:30am 17.3 NNW 14 17 1014.9 - 0.0 - - - - - - -
02/03:00am 17.2 NNW 15 18 1015.0 - 0.0 - - - - - - -
02/02:30am 17.2 NNW 16 19 1015.3 - 0.0 - - - - - - -
02/02:00am 17.3 NNW 17 19 1015.4 - 0.0 - - - - - - -
02/01:30am 17.5 NNW 16 19 1015.9 - 0.0 - - - - - - -
02/01:00am 17.4 NNW 17 20 1015.9 - 0.0 - - - - - - -
02/12:30am 17.5 NNW 17 21 1016.4 - 0.0 - - - - - - -
02/12:00am 17.7 NNW 17 21 1016.5 - 0.0 - - - - - - -
 
Date/Time
EST
Temp

°C
Wind Pressure Rain
since 9am
mm
Weather Cloud Vis
km
Sea
Height
m
Swell
Dir
 
Speed
knots
Gust
knots
hPa Trend Height
m
Period
s
Dir
01/11:30pm 17.5 NNW 16 19 1016.5 - 0.0 - - - - - - -
01/11:00pm 17.4 NNW 15 18 1016.6 - 0.0 - - - - - - -
01/10:30pm 17.5 NNW 16 19 1016.8 - 0.0 - - - - - - -
01/10:00pm 17.9 NNW 15 19 1017.0 - 0.0 - - - - - - -
01/09:30pm 18.1 N 9 13 1017.0 - 0.0 - - - - - - -
01/09:00pm 18.3 N 7 11 1017.2 - 0.0 - - - - - - -
01/08:30pm 18.2 N 8 12 1017.2 - 0.0 - - - - - - -
01/08:00pm 18.6 N 9 13 1017.0 - 0.0 - - - - - - -
01/07:30pm 19.0 N 6 9 1017.1 - 0.0 - - - - - - -
01/07:00pm 19.0 N 8 12 1016.9 - 0.0 - - - - - - -
01/06:30pm 19.0 N 10 16 1016.5 - 0.0 - - - - - - -
01/06:00pm 19.1 N 12 19 1016.4 - 0.0 - - - - - - -
01/05:30pm 19.5 N 16 21 1016.0 - 0.0 - - - - - - -
01/05:00pm 20.4 N 17 21 1015.8 - 0.0 - - - - - - -
01/04:30pm 20.8 N 18 22 1015.7 - 0.0 - - - - - - -
01/04:00pm 21.4 N 17 21 1015.6 - 0.0 - - - - - - -
01/03:30pm 21.8 N 18 21 1015.5 - 0.0 - - - - - - -
01/03:00pm 22.7 NNE 13 16 1015.8 - 0.0 - - - - - - -
01/02:30pm 22.9 N 10 13 1016.2 - 0.0 - - - - - - -
01/02:00pm 23.2 N 7 11 1016.3 - 0.0 - - - - - - -
01/01:30pm 23.9 N 6 10 1017.0 - 0.0 - - - - - - -
01/01:00pm 23.4 N 6 11 1017.1 - 0.0 - - - - - - -
01/12:30pm 23.2 N 10 12 1017.3 - 0.0 - - - - - - -
01/12:00pm 23.3 NNE 9 11 1017.6 - 0.0 - - - - - - -
01/11:30am 24.5 N 4 6 1018.2 - 0.0 - - - - - - -
01/11:00am 23.2 N 5 8 1018.9 - 0.0 - - - - - - -
01/10:30am 22.2 N 7 9 1019.5 - 0.0 - - - - - - -
01/10:00am 21.5 N 7 9 1019.7 - 0.0 - - - - - - -
01/09:30am 21.3 N 5 8 1019.9 - 0.0 - - - - - - -
01/09:00am 19.7 NW 7 9 1020.0 - 0.0 - - - - - - -
01/08:30am 19.1 WNW 6 7 1019.7 - 0.0 - - - - - - -
01/08:00am 19.1 NNW 3 5 1019.4 - 0.0 - - - - - - -
01/07:30am 18.1 WNW 5 6 1019.1 - 0.0 - - - - - - -
01/07:00am 17.6 WNW 6 7 1018.9 - 0.0 - - - - - - -
01/06:30am 17.2 WNW 7 8 1018.6 - 0.0 - - - - - - -
01/06:00am 17.0 W 8 9 1018.6 - 0.0 - - - - - - -
01/05:30am 17.0 WNW 6 7 1018.2 - 0.0 - - - - - - -
01/05:00am 17.2 W 6 7 1018.0 - 0.0 - - - - - - -
01/04:30am 17.1 W 6 7 1017.8 - 0.0 - - - - - - -
01/04:00am 17.1 W 6 7 1017.9 - 0.0 - - - - - - -
01/03:30am 17.3 W 6 7 1017.8 - 0.0 - - - - - - -
01/03:00am 17.0 W 7 8 1017.7 - 0.0 - - - - - - -
01/02:30am 17.4 W 5 7 1017.7 - 0.0 - - - - - - -
01/02:00am 17.3 W 7 8 1017.9 - 0.0 - - - - - - -
01/01:30am 17.1 WNW 6 7 1018.0 - 0.0 - - - - - - -
01/01:00am 17.1 WNW 8 9 1018.2 - 0.0 - - - - - - -
01/12:30am 17.7 ENE 4 5 1018.3 - 0.0 - - - - - - -
01/12:00am 17.7 E 4 6 1018.5 - 0.0 - - - - - - -
 
Date/Time
EST
Temp

°C
Wind Pressure Rain
since 9am
mm
Weather Cloud Vis
km
Sea
Height
m
Swell
Dir
 
Speed
knots
Gust
knots
hPa Trend Height
m
Period
s
Dir
31/11:30pm 17.8 ESE 4 6 1018.6 - 0.0 - - - - - - -
31/11:00pm 17.7 ESE 5 6 1018.6 - 0.0 - - - - - - -
31/10:30pm 17.6 E 5 5 1018.7 - 0.0 - - - - - - -
31/10:00pm 18.1 E 5 6 1018.6 - 0.0 - - - - - - -
31/09:30pm 18.3 ENE 6 7 1018.6 - 0.0 - - - - - - -
31/09:00pm 18.2 NE 7 9 1018.4 - 0.0 - - - - - - -
31/08:30pm 18.4 ENE 8 10 1018.3 - 0.0 - - - - - - -
31/08:00pm 18.5 ENE 9 11 1018.1 - 0.0 - - - - - - -
31/07:30pm 18.5 ENE 9 10 1018.0 - 0.0 - - - - - - -
31/07:00pm 18.4 E 9 10 1017.7 - 0.0 - - - - - - -
31/06:30pm 18.2 E 10 11 1017.2 - 0.0 - - - - - - -
31/06:00pm 18.1 E 10 11 1016.9 - 0.0 - - - - - - -
31/05:30pm 18.5 E 10 11 1016.7 - 0.0 - - - - - - -
31/05:00pm 19.2 E 9 10 1016.5 - 0.0 - - - - - - -
31/04:30pm 19.7 E 9 11 1016.3 - 0.0 - - - - - - -
31/04:00pm 20.0 E 10 11 1016.0 - 0.0 - - - - - - -
31/03:30pm 20.3 ENE 9 11 1016.0 - 0.0 - - - - - - -
31/03:00pm 20.8 E 8 10 1016.1 - 0.0 - - - - - - -
31/02:30pm 21.0 E 9 11 1016.1 - 0.0 - - - - - - -
31/02:00pm 21.2 E 9 10 1016.3 - 0.0 - - - - - - -
31/01:30pm 21.8 E 8 9 1016.4 - 0.0 - - - - - - -
31/01:00pm 21.1 E 7 9 1016.7 - 0.0 - - - - - - -
31/12:30pm 21.5 ENE 6 7 1017.0 - 0.0 - - - - - - -

Other Formats:

Comma delimited format used in spreadsheet applications
http://www.bom.gov.au/fwo/IDQ60701/IDQ60701.94584.axf

JavaScript Object Notation format (JSON) in row-major order
http://www.bom.gov.au/fwo/IDQ60701/IDQ60701.94584.json